createdAt,value
2019-04-10T00:02:10.476Z,9.00
2019-04-10T00:05:15.870Z,9.00
2019-04-10T00:08:20.291Z,8.90
2019-04-10T00:11:24.920Z,8.90
2019-04-10T00:14:29.406Z,8.80
2019-04-10T00:17:34.029Z,8.80
2019-04-10T00:20:38.504Z,8.80
2019-04-10T00:23:43.689Z,8.70
2019-04-10T00:26:48.100Z,8.70
2019-04-10T00:29:52.451Z,8.60
2019-04-10T00:32:56.768Z,8.60
2019-04-10T00:36:01.628Z,8.50
2019-04-10T00:39:08.550Z,8.50
2019-04-10T00:42:12.955Z,8.50
2019-04-10T00:45:17.516Z,8.40
2019-04-10T00:48:21.988Z,8.40
2019-04-10T00:51:26.339Z,8.40
2019-04-10T00:54:30.959Z,8.30
2019-04-10T00:57:35.375Z,8.30
2019-04-10T01:00:39.755Z,8.30
2019-04-10T01:03:44.155Z,8.20
2019-04-10T01:06:48.641Z,8.20
2019-04-10T01:09:53.414Z,8.20
2019-04-10T01:12:58.725Z,8.10
2019-04-10T01:16:03.248Z,8.10
2019-04-10T01:19:07.909Z,8.10
2019-04-10T01:22:12.268Z,8.00
2019-04-10T01:25:16.692Z,8.00
2019-04-10T01:28:20.987Z,8.00
2019-04-10T01:31:25.383Z,7.90
2019-04-10T01:34:29.722Z,7.90
2019-04-10T01:37:47.639Z,7.90
2019-04-10T01:40:40.115Z,7.90
2019-04-10T01:43:44.479Z,7.80
2019-04-10T01:46:48.771Z,7.80
2019-04-10T01:49:53.745Z,7.80
2019-04-10T01:52:58.084Z,7.80
2019-04-10T01:56:03.087Z,7.70
2019-04-10T01:59:07.740Z,7.70
2019-04-10T02:02:27.320Z,7.70
2019-04-10T02:05:33.823Z,7.70
2019-04-10T02:08:38.246Z,7.60
2019-04-10T02:11:42.636Z,7.60
2019-04-10T02:14:46.999Z,7.60
2019-04-10T02:17:51.251Z,7.60
2019-04-10T02:20:55.709Z,7.50
2019-04-10T02:24:00.906Z,7.50
2019-04-10T02:27:05.777Z,7.50
2019-04-10T02:30:12.770Z,7.50
2019-04-10T02:33:17.864Z,7.40
2019-04-10T02:36:23.514Z,7.40
2019-04-10T02:39:36.165Z,7.40
2019-04-10T02:42:34.444Z,7.40
2019-04-10T02:45:40.378Z,7.40
2019-04-10T02:48:45.336Z,7.40
2019-04-10T02:51:51.787Z,7.50
2019-04-10T02:54:57.690Z,7.50
2019-04-10T02:58:02.579Z,7.50
2019-04-10T03:01:07.120Z,7.50
2019-04-10T03:04:13.275Z,7.40
2019-04-10T03:07:17.799Z,7.40
2019-04-10T03:10:30.045Z,7.40
2019-04-10T03:13:29.345Z,7.30
2019-04-10T03:16:35.379Z,7.30
2019-04-10T03:19:39.926Z,7.20
2019-04-10T03:22:45.133Z,7.20
2019-04-10T03:25:49.578Z,7.10
2019-04-10T03:28:54.252Z,7.10
2019-04-10T03:32:01.915Z,7.10
2019-04-10T03:35:14.600Z,7.10
2019-04-10T03:38:19.126Z,7.10
2019-04-10T03:41:24.124Z,7.10
2019-04-10T03:44:28.575Z,7.00
2019-04-10T03:47:33.469Z,7.00
2019-04-10T03:50:37.839Z,7.00
2019-04-10T03:53:42.524Z,7.00
2019-04-10T03:56:47.854Z,7.00
2019-04-10T03:59:52.363Z,7.00
2019-04-10T04:02:56.748Z,7.10
2019-04-10T04:06:01.622Z,7.10
2019-04-10T04:09:11.602Z,7.10
2019-04-10T04:12:14.759Z,7.10
2019-04-10T04:15:19.919Z,7.10
2019-04-10T04:18:24.878Z,7.10
2019-04-10T04:21:29.947Z,7.10
2019-04-10T04:24:34.429Z,7.10
2019-04-10T04:27:39.847Z,7.10
2019-04-10T04:30:44.256Z,7.20
2019-04-10T04:33:48.993Z,7.20
2019-04-10T04:36:53.623Z,7.10
2019-04-10T04:39:58.371Z,7.10
2019-04-10T04:43:03.669Z,7.10
2019-04-10T04:46:08.062Z,7.10
2019-04-10T04:49:13.590Z,7.10
2019-04-10T04:52:18.298Z,7.10
2019-04-10T04:55:22.920Z,7.10
2019-04-10T04:58:28.262Z,7.10
2019-04-10T05:01:32.879Z,7.10
2019-04-10T05:04:37.497Z,7.10
2019-04-10T05:07:41.895Z,7.10
2019-04-10T05:10:47.381Z,7.10
2019-04-10T05:13:51.808Z,7.10
2019-04-10T05:16:56.148Z,7.10
2019-04-10T05:20:00.839Z,7.20
2019-04-10T05:23:06.124Z,7.20
2019-04-10T05:26:10.663Z,7.30
2019-04-10T05:29:15.366Z,7.30
2019-04-10T05:32:19.760Z,7.30
2019-04-10T05:35:24.166Z,7.40
2019-04-10T05:38:29.129Z,7.40
2019-04-10T05:41:33.620Z,7.50
2019-04-10T05:44:38.219Z,7.50
2019-04-10T05:47:42.579Z,7.60
2019-04-10T05:50:54.870Z,7.60
2019-04-10T05:53:55.277Z,7.70
2019-04-10T05:56:59.071Z,7.70
2019-04-10T06:00:05.267Z,7.70
2019-04-10T06:03:09.596Z,7.70
2019-04-10T06:06:14.532Z,7.70
2019-04-10T06:09:38.603Z,7.70
2019-04-10T06:12:43.016Z,7.80
2019-04-10T06:15:47.486Z,7.80
2019-04-10T06:18:51.876Z,7.80
2019-04-10T06:21:56.593Z,7.90
2019-04-10T06:25:00.986Z,7.90
2019-04-10T06:28:05.439Z,8.00
2019-04-10T06:31:09.762Z,8.00
2019-04-10T06:34:16.118Z,8.00
2019-04-10T06:37:20.158Z,8.10
2019-04-10T06:40:26.322Z,8.10
2019-04-10T06:43:30.830Z,8.20
2019-04-10T06:46:37.544Z,8.20
2019-04-10T06:49:41.412Z,8.20
2019-04-10T06:52:45.819Z,8.20
2019-04-10T06:55:50.144Z,8.30
2019-04-10T06:58:54.581Z,8.30
2019-04-10T07:02:12.891Z,8.20
2019-04-10T07:05:08.567Z,8.20
2019-04-10T07:08:16.529Z,8.10
2019-04-10T07:11:20.075Z,8.00
2019-04-10T07:14:24.578Z,7.90
2019-04-10T07:17:29.257Z,8.00
2019-04-10T07:20:33.798Z,8.10
2019-04-10T07:23:38.708Z,8.30
2019-04-10T07:26:46.302Z,8.40
2019-04-10T07:29:52.360Z,8.40
2019-04-10T07:32:55.750Z,8.40
2019-04-10T07:36:04.297Z,8.50
2019-04-10T07:39:08.095Z,8.60
2019-04-10T07:42:25.275Z,8.60
2019-04-10T07:45:18.800Z,8.60
2019-04-10T07:48:23.114Z,8.70
2019-04-10T07:51:27.670Z,8.70
2019-04-10T07:54:33.092Z,8.70
2019-04-10T07:57:38.505Z,8.80
2019-04-10T08:00:43.040Z,8.80
2019-04-10T08:03:47.923Z,8.90
2019-04-10T08:06:52.379Z,9.00
2019-04-10T08:09:56.738Z,9.10
2019-04-10T08:13:02.287Z,9.10
2019-04-10T08:16:06.760Z,9.20
2019-04-10T08:19:12.341Z,9.20
2019-04-10T08:22:17.888Z,9.30
2019-04-10T08:25:22.825Z,9.40
2019-04-10T08:28:30.488Z,9.40
2019-04-10T08:31:33.278Z,9.50
2019-04-10T08:34:38.579Z,9.60
2019-04-10T08:37:43.102Z,9.60
2019-04-10T08:40:48.215Z,9.70
2019-04-10T08:43:52.654Z,9.80
2019-04-10T08:46:58.121Z,9.90
2019-04-10T08:50:03.587Z,10.00
2019-04-10T08:53:08.043Z,10.00
2019-04-10T08:56:12.994Z,10.10
2019-04-10T08:59:17.378Z,10.10
2019-04-10T09:02:22.152Z,10.20
2019-04-10T09:05:26.511Z,10.20
2019-04-10T09:08:30.959Z,10.30
2019-04-10T09:11:35.468Z,10.40
2019-04-10T09:14:39.815Z,10.40
2019-04-10T09:17:44.113Z,10.50
2019-04-10T09:20:49.041Z,10.60
2019-04-10T09:23:56.221Z,10.70
2019-04-10T09:27:00.535Z,10.70
2019-04-10T09:30:06.718Z,10.80
2019-04-10T09:33:20.986Z,10.80
2019-04-10T09:36:18.228Z,10.80
2019-04-10T09:39:23.319Z,10.90
2019-04-10T09:42:27.837Z,10.90
2019-04-10T09:45:35.030Z,10.90
2019-04-10T09:48:40.072Z,10.90
2019-04-10T09:51:44.615Z,10.90
2019-04-10T09:54:49.007Z,11.00
2019-04-10T09:57:53.941Z,11.00
2019-04-10T10:01:01.411Z,11.00
2019-04-10T10:04:06.708Z,11.00
2019-04-10T10:07:12.204Z,11.10
2019-04-10T10:10:17.278Z,11.20
2019-04-10T10:13:23.986Z,11.20
2019-04-10T10:16:30.293Z,11.30
2019-04-10T10:19:34.419Z,11.30
2019-04-10T10:22:39.105Z,11.40
2019-04-10T10:25:43.741Z,11.40
2019-04-10T10:28:48.173Z,11.50
2019-04-10T10:31:53.597Z,11.50
2019-04-10T10:34:58.847Z,11.60
2019-04-10T10:38:03.971Z,11.70
2019-04-10T10:41:09.526Z,11.80
2019-04-10T10:44:15.082Z,11.90
2019-04-10T10:47:22.263Z,11.90
2019-04-10T10:50:26.678Z,12.00
2019-04-10T10:53:31.098Z,12.00
2019-04-10T10:56:36.239Z,12.00
2019-04-10T10:59:41.796Z,12.00
2019-04-10T11:02:46.191Z,12.00
2019-04-10T11:05:50.768Z,12.00
2019-04-10T11:08:55.552Z,11.90
2019-04-10T11:12:00.160Z,11.90
2019-04-10T11:15:05.080Z,11.90
2019-04-10T11:18:10.307Z,11.90
2019-04-10T11:21:14.900Z,11.90
2019-04-10T11:24:19.630Z,11.90
2019-04-10T11:27:25.235Z,11.90
2019-04-10T11:30:32.486Z,11.90
2019-04-10T11:33:37.279Z,11.90
2019-04-10T11:36:42.514Z,11.90
2019-04-10T11:39:50.121Z,11.90
2019-04-10T11:42:54.232Z,11.90
2019-04-10T11:46:02.625Z,11.90
2019-04-10T11:49:07.491Z,11.90
2019-04-10T11:52:14.508Z,11.90
2019-04-10T11:55:20.993Z,11.80
2019-04-10T11:58:27.110Z,11.80
2019-04-10T12:01:30.955Z,11.80
2019-04-10T12:04:45.380Z,11.80
2019-04-10T12:08:09.068Z,11.80
2019-04-10T12:13:54.376Z,11.80
2019-04-10T12:16:58.921Z,11.80
2019-04-10T12:20:03.476Z,11.80
2019-04-10T12:23:08.464Z,11.70
2019-04-10T12:26:13.806Z,11.70
2019-04-10T12:29:18.400Z,11.70
2019-04-10T12:32:24.984Z,11.80
2019-04-10T12:35:29.774Z,11.70
2019-04-10T12:38:34.240Z,11.80
2019-04-10T12:41:41.620Z,11.80
2019-04-10T12:44:47.123Z,11.80
2019-04-10T12:47:52.450Z,11.90
2019-04-10T12:50:57.121Z,11.90
2019-04-10T12:54:02.509Z,11.90
2019-04-10T12:57:06.967Z,12.00
2019-04-10T13:00:14.211Z,12.00
2019-04-10T13:03:18.820Z,12.00
2019-04-10T13:06:24.210Z,12.00
2019-04-10T13:09:29.628Z,12.00
2019-04-10T14:10:31.302Z,11.60
2019-04-10T14:13:39.815Z,11.50
2019-04-10T14:17:07.320Z,11.40
2019-04-10T14:20:13.150Z,11.40
2019-04-10T14:23:26.549Z,11.40
2019-04-10T14:27:05.801Z,11.30
2019-04-10T14:30:16.264Z,11.30
2019-04-10T14:33:23.694Z,11.20
2019-04-10T14:36:28.184Z,11.20
2019-04-10T14:39:33.492Z,11.20
2019-04-10T14:42:38.391Z,11.20
2019-04-10T14:45:43.730Z,11.20
2019-04-10T14:48:48.842Z,11.20
2019-04-10T14:51:53.206Z,11.20
2019-04-10T14:54:57.577Z,11.20
2019-04-10T14:58:01.842Z,11.10
2019-04-10T15:01:08.384Z,11.10
2019-04-10T15:04:12.949Z,11.10
2019-04-10T15:07:17.785Z,11.10
2019-04-10T15:10:22.115Z,11.10
2019-04-10T15:13:26.846Z,11.10
2019-04-10T15:16:32.051Z,11.10
2019-04-10T15:19:36.487Z,11.10
2019-04-10T15:22:40.728Z,11.10
2019-04-10T15:25:45.115Z,11.00
2019-04-10T15:28:49.958Z,11.00
2019-04-10T15:31:54.409Z,11.00
2019-04-10T15:34:58.684Z,11.00
2019-04-10T15:38:06.433Z,11.00
2019-04-10T15:41:10.844Z,10.90
2019-04-10T15:44:16.300Z,10.90
2019-04-10T15:47:23.495Z,10.90
2019-04-10T15:50:28.391Z,10.90
2019-04-10T15:53:32.858Z,10.80
2019-04-10T15:56:38.131Z,10.80
2019-04-10T15:59:44.188Z,10.80
2019-04-10T16:02:48.908Z,10.80
2019-04-10T16:05:53.583Z,10.80
2019-04-10T16:08:58.840Z,10.80
2019-04-10T16:12:14.601Z,10.80
2019-04-10T16:15:19.331Z,10.70
2019-04-10T16:18:24.829Z,10.70
2019-04-10T16:21:29.710Z,10.70
2019-04-10T16:24:34.099Z,10.70
2019-04-10T16:27:39.147Z,10.70
2019-04-10T16:30:43.552Z,10.70
2019-04-10T16:33:48.376Z,10.70
2019-04-10T16:36:52.884Z,10.60
2019-04-10T16:40:03.242Z,10.60
2019-04-10T16:43:04.367Z,10.60
2019-04-10T16:46:09.085Z,10.60
2019-04-10T16:49:13.502Z,10.60
2019-04-10T16:52:17.811Z,10.50
2019-04-10T16:55:22.779Z,10.50
2019-04-10T16:58:27.613Z,10.50
2019-04-10T17:01:32.985Z,10.50
2019-04-10T17:04:37.475Z,10.50
2019-04-10T17:07:41.797Z,10.50
2019-04-10T17:10:48.300Z,10.50
2019-04-10T17:13:52.928Z,10.40
2019-04-10T17:16:57.851Z,10.40
2019-04-10T17:20:02.468Z,10.40
2019-04-10T17:23:08.101Z,10.40
2019-04-10T17:26:12.980Z,10.40
2019-04-10T17:29:17.733Z,10.40
2019-04-10T17:32:22.102Z,10.30
2019-04-10T17:35:27.567Z,10.30
2019-04-10T17:38:32.044Z,10.30
2019-04-10T17:41:36.386Z,10.30
2019-04-10T17:44:42.779Z,10.30
2019-04-10T17:47:47.276Z,10.20
2019-04-10T17:50:53.146Z,10.20
2019-04-10T17:53:57.998Z,10.20
2019-04-10T17:57:02.571Z,10.20
2019-04-10T18:00:24.341Z,10.20
2019-04-10T18:03:39.678Z,10.20
2019-04-10T18:06:35.266Z,10.10
2019-04-10T18:09:40.993Z,10.10
2019-04-10T18:12:46.070Z,10.10
2019-04-10T18:15:54.129Z,10.10
2019-04-10T18:19:00.121Z,10.10
2019-04-10T18:22:05.361Z,10.10
2019-04-10T18:25:10.031Z,10.10
2019-04-10T18:28:14.375Z,10.00
2019-04-10T18:31:18.787Z,10.00
2019-04-10T18:34:23.182Z,10.00
2019-04-10T18:37:28.593Z,10.00
2019-04-10T18:40:33.603Z,10.00
2019-04-10T18:43:37.884Z,10.00
2019-04-10T18:46:42.059Z,10.00
2019-04-10T18:49:47.306Z,9.90
2019-04-10T18:52:51.881Z,9.90
2019-04-10T18:55:56.599Z,9.90
2019-04-10T18:59:07.972Z,9.90
2019-04-10T19:02:30.457Z,9.90
2019-04-10T19:05:38.377Z,9.90
2019-04-10T19:08:43.941Z,9.90
2019-04-10T19:11:48.494Z,9.90
2019-04-10T19:14:52.895Z,9.90
2019-04-10T19:17:57.567Z,9.80
2019-04-10T19:21:05.355Z,9.80
2019-04-10T19:24:09.911Z,9.80
2019-04-10T19:27:14.382Z,9.80
2019-04-10T19:30:37.398Z,9.80
2019-04-10T19:33:41.886Z,9.80
2019-04-10T19:36:46.253Z,9.80
2019-04-10T19:39:50.890Z,9.80
2019-04-10T19:42:55.255Z,9.80
2019-04-10T19:46:00.607Z,9.80
2019-04-10T19:49:06.054Z,9.70
2019-04-10T19:52:14.117Z,9.70
2019-04-10T19:55:19.758Z,9.70
2019-04-10T19:58:26.023Z,9.60
2019-04-10T20:01:31.431Z,9.60
2019-04-10T20:04:36.841Z,9.60
2019-04-10T20:07:41.222Z,9.60
2019-04-10T20:10:45.752Z,9.60
2019-04-10T20:13:51.204Z,9.60
2019-04-10T20:16:55.701Z,9.60
2019-04-10T20:20:00.063Z,9.50
2019-04-10T20:23:04.721Z,9.50
2019-04-10T20:26:09.246Z,9.50
2019-04-10T20:29:15.072Z,9.50
2019-04-10T20:32:19.713Z,9.50
2019-04-10T20:35:26.481Z,9.50
2019-04-10T20:38:32.395Z,9.50
2019-04-10T20:41:47.788Z,9.50
2019-04-10T20:44:45.172Z,9.50
2019-04-10T20:47:50.358Z,9.40
2019-04-10T20:50:54.615Z,9.40
2019-04-10T20:53:58.849Z,9.40
2019-04-10T20:57:04.435Z,9.40
2019-04-10T21:00:10.930Z,9.40
2019-04-10T21:03:15.525Z,9.40
2019-04-10T21:06:20.988Z,9.40
2019-04-10T21:09:25.799Z,9.40
2019-04-10T21:12:30.199Z,9.30
2019-04-10T21:15:35.394Z,9.30
2019-04-10T21:18:42.478Z,9.30
2019-04-10T21:21:46.913Z,9.30
2019-04-10T21:24:52.083Z,9.30
2019-04-10T21:27:57.830Z,9.30
2019-04-10T21:31:20.159Z,9.30
2019-04-10T21:34:32.539Z,9.30
2019-04-10T21:37:38.103Z,9.30
2019-04-10T21:40:43.317Z,9.30
2019-04-10T21:43:50.852Z,9.30
2019-04-10T21:46:55.767Z,9.30
2019-04-10T21:50:00.519Z,9.30
2019-04-10T21:53:06.014Z,9.20
2019-04-10T21:56:10.514Z,9.20
2019-04-10T21:59:16.355Z,9.20
2019-04-10T22:02:21.838Z,9.20
2019-04-10T22:05:28.308Z,9.20
2019-04-10T22:08:39.372Z,9.20
2019-04-10T22:11:45.606Z,9.20
2019-04-10T22:14:50.411Z,9.20
2019-04-10T22:17:56.628Z,9.20
2019-04-10T22:21:01.454Z,9.20
2019-04-10T22:24:07.154Z,9.20
2019-04-10T22:27:12.130Z,9.10
2019-04-10T22:30:17.580Z,9.10
2019-04-10T22:33:22.374Z,9.10
2019-04-10T22:36:29.019Z,9.10
2019-04-10T22:39:35.873Z,9.10
2019-04-10T22:42:46.056Z,9.10
2019-04-10T22:45:46.758Z,9.10
2019-04-10T22:48:51.582Z,9.10
2019-04-10T22:51:56.424Z,9.10
2019-04-10T22:55:01.416Z,9.00
2019-04-10T22:58:06.126Z,9.00
2019-04-10T23:01:13.129Z,9.00
2019-04-10T23:04:17.978Z,9.00
2019-04-10T23:07:22.633Z,8.90
2019-04-10T23:10:27.300Z,8.90
2019-04-10T23:13:32.091Z,8.90
2019-04-10T23:16:37.883Z,8.90
2019-04-10T23:19:42.564Z,8.80
2019-04-10T23:22:48.732Z,8.80
2019-04-10T23:25:53.535Z,8.80
2019-04-10T23:29:02.076Z,8.80
2019-04-10T23:32:06.267Z,8.70
2019-04-10T23:35:11.598Z,8.70
2019-04-10T23:38:17.421Z,8.70
2019-04-10T23:41:23.254Z,8.70
2019-04-10T23:44:29.175Z,8.70
2019-04-10T23:47:34.082Z,8.70
2019-04-10T23:50:40.704Z,8.70
2019-04-10T23:53:45.499Z,8.70
2019-04-10T23:56:52.580Z,8.70
2019-04-10T23:59:59.306Z,8.70
